Time;durP1;ratioP1;P1;durP2;ratioP2;P2;SDS_P1;SDS_P2;PMS_P1;PMS_P2;Temp;Humidity;BMP_temperature;BMP_pressure;BME280_temperature;BME280_humidity;BME280_pressure;Samples;Min_cycle;Max_cycle;Signal;HPM_P1;HPM_P2
2021/07/29 00:01:53;;;;;;;5.25;2.25;;;;;;;;;;5003171;28;20121;-46
2021/07/29 00:04:20;;;;;;;2.95;2.10;;;;;;;;;;5010712;28;20058;-44
2021/07/29 00:06:47;;;;;;;3.88;2.25;;;;;;;;;;5008563;28;20056;-47
2021/07/29 00:09:14;;;;;;;3.88;2.28;;;;;;;;;;5010582;28;20044;-48
2021/07/29 00:11:41;;;;;;;5.03;2.30;;;;;;;;;;5011600;28;20049;-47
2021/07/29 00:14:07;;;;;;;4.50;2.22;;;;;;;;;;5010394;28;20088;-46
2021/07/29 00:16:43;;;;;;;4.45;2.50;;;;;;;;;;5007820;28;20042;-47
2021/07/29 00:19:10;;;;;;;4.18;2.50;;;;;;;;;;5010691;28;20121;-46
2021/07/29 00:21:38;;;;;;;3.53;2.25;;;;;;;;;;5011388;28;20097;-45
2021/07/29 00:24:05;;;;;;;4.32;2.30;;;;;;;;;;5006022;28;20450;-48
2021/07/29 00:26:32;;;;;;;6.47;2.63;;;;;;;;;;5010774;28;20113;-47
2021/07/29 00:29:02;;;;;;;3.13;2.25;;;;;;;;;;5009871;28;20072;-49
2021/07/29 00:31:29;;;;;;;2.92;2.30;;;;;;;;;;5005803;28;20042;-47
2021/07/29 00:33:56;;;;;;;3.70;2.63;;;;;;;;;;4995161;28;20047;-49
2021/07/29 00:36:23;;;;;;;3.75;2.50;;;;;;;;;;4995603;28;20077;-48
2021/07/29 00:38:59;;;;;;;3.47;2.47;;;;;;;;;;5002621;28;20550;-46
2021/07/29 00:41:26;;;;;;;6.50;2.35;;;;;;;;;;5003973;28;20503;-46
2021/07/29 00:44:03;;;;;;;5.78;2.50;;;;;;;;;;5010455;28;20062;-46
2021/07/29 00:46:30;;;;;;;5.20;2.33;;;;;;;;;;5011042;28;20054;-47
2021/07/29 00:48:58;;;;;;;4.93;2.50;;;;;;;;;;4993609;28;20050;-46
2021/07/29 00:51:25;;;;;;;4.18;2.58;;;;;;;;;;5003837;28;20038;-45
2021/07/29 00:53:52;;;;;;;3.35;2.33;;;;;;;;;;5011193;28;20134;-47
2021/07/29 00:56:19;;;;;;;5.10;2.70;;;;;;;;;;5004527;28;20074;-48
2021/07/29 00:58:46;;;;;;;3.58;2.28;;;;;;;;;;5008015;28;20033;-48
2021/07/29 01:01:13;;;;;;;3.58;2.15;;;;;;;;;;5001661;28;20117;-46
2021/07/29 01:03:40;;;;;;;3.58;2.50;;;;;;;;;;5008890;28;21743;-46
2021/07/29 01:06:07;;;;;;;3.05;2.25;;;;;;;;;;5009900;28;20380;-46
2021/07/29 01:08:54;;;;;;;3.47;2.47;;;;;;;;;;5008882;28;20050;-48
2021/07/29 01:11:20;;;;;;;4.68;2.47;;;;;;;;;;5003955;28;20069;-47
2021/07/29 01:13:47;;;;;;;3.53;2.65;;;;;;;;;;5011052;28;20511;-53
2021/07/29 01:16:14;;;;;;;3.85;2.10;;;;;;;;;;5009636;28;20156;-51
2021/07/29 01:18:41;;;;;;;3.40;2.60;;;;;;;;;;5006475;28;20125;-54
2021/07/29 01:21:08;;;;;;;3.47;2.50;;;;;;;;;;5009596;28;20065;-53
2021/07/29 01:23:34;;;;;;;5.18;2.55;;;;;;;;;;5011341;28;20100;-51
2021/07/29 01:26:01;;;;;;;4.63;2.60;;;;;;;;;;5005297;28;20043;-54
2021/07/29 01:28:28;;;;;;;6.88;3.35;;;;;;;;;;4991291;28;20104;-54
2021/07/29 01:30:55;;;;;;;6.32;2.67;;;;;;;;;;5002066;28;20121;-52
2021/07/29 01:33:22;;;;;;;4.38;2.80;;;;;;;;;;5013571;28;20474;-55
2021/07/29 01:35:49;;;;;;;4.47;2.50;;;;;;;;;;5013094;28;20049;-46
2021/07/29 01:38:15;;;;;;;6.05;2.70;;;;;;;;;;5014073;28;20406;-48
2021/07/29 01:40:42;;;;;;;3.90;2.80;;;;;;;;;;5001216;28;20045;-45
2021/07/29 01:43:09;;;;;;;4.85;3.00;;;;;;;;;;5014161;28;20121;-46
2021/07/29 01:45:36;;;;;;;4.82;2.65;;;;;;;;;;5013838;28;20072;-47
2021/07/29 01:48:05;;;;;;;6.05;3.08;;;;;;;;;;5013308;28;20045;-48
2021/07/29 01:50:32;;;;;;;5.05;2.63;;;;;;;;;;5011773;28;20073;-45
2021/07/29 01:52:59;;;;;;;5.78;2.80;;;;;;;;;;5014234;28;20045;-45
2021/07/29 01:55:26;;;;;;;3.88;2.53;;;;;;;;;;5011515;28;20157;-49
2021/07/29 01:57:53;;;;;;;4.72;2.25;;;;;;;;;;5005706;28;20553;-47
2021/07/29 02:00:20;;;;;;;4.75;2.45;;;;;;;;;;5010877;28;20052;-45
2021/07/29 02:02:46;;;;;;;4.05;2.53;;;;;;;;;;5012767;28;20038;-47
2021/07/29 02:05:14;;;;;;;4.57;2.72;;;;;;;;;;5013660;28;20054;-45
2021/07/29 02:07:40;;;;;;;6.50;2.85;;;;;;;;;;5012843;28;20446;-48
2021/07/29 02:10:07;;;;;;;5.78;2.92;;;;;;;;;;4994827;28;20125;-45
2021/07/29 02:12:34;;;;;;;3.30;2.38;;;;;;;;;;5012108;28;20092;-46
2021/07/29 02:15:01;;;;;;;8.15;3.20;;;;;;;;;;5012052;28;20081;-49
2021/07/29 02:17:28;;;;;;;4.55;3.05;;;;;;;;;;5011407;28;20096;-44
2021/07/29 02:19:55;;;;;;;3.60;2.78;;;;;;;;;;5012520;28;20042;-45
2021/07/29 02:22:22;;;;;;;5.22;3.50;;;;;;;;;;5013080;28;20447;-49
2021/07/29 02:24:49;;;;;;;4.97;3.20;;;;;;;;;;5008366;28;20050;-49
2021/07/29 02:27:15;;;;;;;4.38;2.72;;;;;;;;;;4998369;28;20449;-44
2021/07/29 02:29:42;;;;;;;6.00;2.95;;;;;;;;;;5009692;28;20064;-46
2021/07/29 02:32:09;;;;;;;3.58;2.60;;;;;;;;;;5010022;28;20224;-49
2021/07/29 02:34:36;;;;;;;4.38;3.03;;;;;;;;;;5012140;28;20415;-46
2021/07/29 02:37:03;;;;;;;5.07;2.70;;;;;;;;;;5011456;28;20488;-47
2021/07/29 02:39:29;;;;;;;5.88;2.70;;;;;;;;;;5011051;28;20037;-51
2021/07/29 02:41:56;;;;;;;5.53;3.22;;;;;;;;;;5012868;28;20066;-45
2021/07/29 02:44:23;;;;;;;4.63;2.80;;;;;;;;;;5009647;28;20038;-47
2021/07/29 02:46:50;;;;;;;4.03;2.80;;;;;;;;;;5012660;28;20414;-48
2021/07/29 02:49:17;;;;;;;5.22;3.00;;;;;;;;;;4996769;28;20456;-46
2021/07/29 02:51:43;;;;;;;7.90;3.05;;;;;;;;;;5011008;28;20400;-45
2021/07/29 02:54:10;;;;;;;4.30;2.92;;;;;;;;;;5011618;28;20085;-48
2021/07/29 02:56:37;;;;;;;4.03;2.80;;;;;;;;;;5009587;28;20041;-46
2021/07/29 02:59:04;;;;;;;4.72;2.60;;;;;;;;;;5008696;28;20077;-46
2021/07/29 03:01:30;;;;;;;5.68;3.38;;;;;;;;;;5007287;28;20092;-49
2021/07/29 03:03:58;;;;;;;5.18;2.95;;;;;;;;;;5012011;28;20121;-45
2021/07/29 03:06:24;;;;;;;4.88;3.08;;;;;;;;;;5012301;28;20061;-46
2021/07/29 03:08:51;;;;;;;3.92;2.90;;;;;;;;;;4992195;28;20073;-49
2021/07/29 03:11:18;;;;;;;6.45;2.75;;;;;;;;;;5025857;28;20081;-45
2021/07/29 03:13:45;;;;;;;5.75;2.75;;;;;;;;;;5012466;28;20469;-46
2021/07/29 03:16:13;;;;;;;4.32;3.10;;;;;;;;;;5012463;28;20096;-46
2021/07/29 03:18:40;;;;;;;3.90;2.90;;;;;;;;;;5000626;28;20063;-47
2021/07/29 03:21:07;;;;;;;6.00;3.22;;;;;;;;;;5009246;28;20037;-49
2021/07/29 03:23:36;;;;;;;5.68;2.80;;;;;;;;;;5012204;28;20100;-49
2021/07/29 03:26:04;;;;;;;4.13;2.80;;;;;;;;;;5012620;28;20042;-45
2021/07/29 03:28:31;;;;;;;4.22;2.95;;;;;;;;;;5009587;28;20076;-43
2021/07/29 03:30:58;;;;;;;4.25;2.72;;;;;;;;;;5011130;28;20490;-42
2021/07/29 03:33:24;;;;;;;4.65;3.05;;;;;;;;;;5011418;28;20078;-42
2021/07/29 03:35:51;;;;;;;3.83;2.67;;;;;;;;;;5012258;28;20141;-43
2021/07/29 03:38:18;;;;;;;3.58;2.53;;;;;;;;;;5011646;28;20046;-54
2021/07/29 03:40:46;;;;;;;5.32;3.00;;;;;;;;;;5009338;28;20128;-44
2021/07/29 03:43:13;;;;;;;3.95;2.53;;;;;;;;;;4995311;28;20539;-44
2021/07/29 03:45:40;;;;;;;6.57;2.92;;;;;;;;;;5012196;28;20462;-43
2021/07/29 03:48:07;;;;;;;5.25;3.38;;;;;;;;;;5005163;28;20061;-43
2021/07/29 03:50:35;;;;;;;5.32;2.55;;;;;;;;;;5012381;28;20074;-45
2021/07/29 03:53:02;;;;;;;3.78;2.75;;;;;;;;;;5011545;28;20080;-49
2021/07/29 03:55:29;;;;;;;4.13;2.80;;;;;;;;;;5011945;28;20550;-52
2021/07/29 03:57:57;;;;;;;4.50;2.40;;;;;;;;;;5001467;28;20038;-46
2021/07/29 04:00:24;;;;;;;4.35;2.65;;;;;;;;;;5004123;28;20029;-46
2021/07/29 04:02:51;;;;;;;5.15;3.20;;;;;;;;;;5012018;28;20049;-49
2021/07/29 04:05:18;;;;;;;3.67;2.75;;;;;;;;;;5010912;28;20451;-46
2021/07/29 04:07:45;;;;;;;6.13;2.97;;;;;;;;;;5005651;28;20523;-46
2021/07/29 04:10:11;;;;;;;4.70;2.92;;;;;;;;;;5008336;28;20400;-47
2021/07/29 04:12:38;;;;;;;4.50;2.55;;;;;;;;;;5004237;28;20053;-44
2021/07/29 04:15:05;;;;;;;4.50;2.55;;;;;;;;;;4997939;28;20073;-45
2021/07/29 04:17:32;;;;;;;5.93;2.80;;;;;;;;;;5011109;28;20049;-46
2021/07/29 04:19:59;;;;;;;3.83;2.72;;;;;;;;;;5009853;28;20042;-47
2021/07/29 04:22:26;;;;;;;3.78;2.53;;;;;;;;;;5002793;28;20563;-47
2021/07/29 04:24:57;;;;;;;4.22;2.67;;;;;;;;;;5011296;28;20451;-46
2021/07/29 04:27:24;;;;;;;4.65;2.45;;;;;;;;;;5011003;28;20081;-49
2021/07/29 04:29:51;;;;;;;7.15;3.40;;;;;;;;;;5000774;28;20049;-46
2021/07/29 04:32:20;;;;;;;6.80;3.67;;;;;;;;;;5006183;28;20077;-47
2021/07/29 04:34:51;;;;;;;5.60;2.67;;;;;;;;;;5010055;28;20517;-47
2021/07/29 04:37:17;;;;;;;4.57;2.35;;;;;;;;;;5006636;28;20074;-44
2021/07/29 04:39:44;;;;;;;5.25;2.50;;;;;;;;;;5008896;28;20422;-49
2021/07/29 04:42:11;;;;;;;5.68;2.63;;;;;;;;;;5011840;28;20515;-48
2021/07/29 04:44:38;;;;;;;3.22;2.10;;;;;;;;;;5010200;28;20041;-47
2021/07/29 04:47:05;;;;;;;4.13;2.60;;;;;;;;;;4998865;28;20051;-48
2021/07/29 04:49:32;;;;;;;5.38;2.63;;;;;;;;;;5006810;28;20042;-47
2021/07/29 04:51:59;;;;;;;5.75;2.50;;;;;;;;;;5011613;28;20057;-49
2021/07/29 04:54:26;;;;;;;5.25;2.28;;;;;;;;;;5011032;28;20074;-45
2021/07/29 04:56:53;;;;;;;4.78;2.30;;;;;;;;;;5007095;28;20119;-47
2021/07/29 04:59:21;;;;;;;3.85;2.10;;;;;;;;;;5006326;28;20658;-49
2021/07/29 05:01:49;;;;;;;5.10;2.92;;;;;;;;;;5008933;28;20392;-47
2021/07/29 05:04:16;;;;;;;4.20;2.53;;;;;;;;;;5011946;28;20392;-52
2021/07/29 05:06:42;;;;;;;4.90;2.42;;;;;;;;;;5014647;28;20073;-53
2021/07/29 05:09:10;;;;;;;4.82;2.75;;;;;;;;;;4998775;28;20050;-51
2021/07/29 05:11:37;;;;;;;4.78;2.65;;;;;;;;;;5007978;28;20065;-52
2021/07/29 05:14:04;;;;;;;4.30;2.50;;;;;;;;;;4987877;28;20144;-50
2021/07/29 05:16:31;;;;;;;5.13;2.60;;;;;;;;;;4997050;28;20046;-52
2021/07/29 05:18:58;;;;;;;3.97;2.38;;;;;;;;;;5002840;28;20038;-48
2021/07/29 05:21:25;;;;;;;4.40;2.42;;;;;;;;;;5013041;28;20066;-48
2021/07/29 05:23:52;;;;;;;3.58;2.47;;;;;;;;;;5014180;28;20066;-49
2021/07/29 05:26:19;;;;;;;4.05;2.30;;;;;;;;;;5004110;28;20443;-48
2021/07/29 05:28:46;;;;;;;3.67;2.17;;;;;;;;;;5004164;28;20112;-53
2021/07/29 05:31:13;;;;;;;3.55;2.10;;;;;;;;;;5007733;28;20492;-49
2021/07/29 05:33:40;;;;;;;4.95;2.30;;;;;;;;;;5012780;28;20127;-52
2021/07/29 05:36:07;;;;;;;4.72;2.63;;;;;;;;;;5014820;28;20057;-52
2021/07/29 05:38:34;;;;;;;3.72;2.22;;;;;;;;;;5005096;28;20070;-49
2021/07/29 05:41:04;;;;;;;4.43;2.15;;;;;;;;;;5013631;28;20096;-50
2021/07/29 05:43:33;;;;;;;3.63;2.20;;;;;;;;;;4997501;28;20092;-55
2021/07/29 05:45:59;;;;;;;3.58;2.35;;;;;;;;;;5010113;28;20088;-46
2021/07/29 05:48:26;;;;;;;6.78;2.42;;;;;;;;;;5022450;23;20057;-47
2021/07/29 05:50:56;;;;;;;4.22;2.58;;;;;;;;;;5013857;28;20080;-51
2021/07/29 05:53:24;;;;;;;3.75;2.65;;;;;;;;;;5012704;28;20104;-48
2021/07/29 05:55:51;;;;;;;3.53;2.25;;;;;;;;;;5011349;28;20041;-48
2021/07/29 05:58:18;;;;;;;3.88;2.67;;;;;;;;;;5005671;28;20126;-48
2021/07/29 06:00:45;;;;;;;5.45;2.70;;;;;;;;;;5002179;28;20145;-48
2021/07/29 06:03:12;;;;;;;3.67;2.60;;;;;;;;;;5013313;28;20042;-53
2021/07/29 06:05:39;;;;;;;5.30;2.55;;;;;;;;;;5013297;28;20084;-47
2021/07/29 06:08:06;;;;;;;4.68;2.70;;;;;;;;;;5012894;28;20081;-50
2021/07/29 06:10:33;;;;;;;3.80;2.28;;;;;;;;;;5010896;28;20096;-48
2021/07/29 06:12:59;;;;;;;3.17;2.00;;;;;;;;;;5011867;28;20049;-48
2021/07/29 06:15:26;;;;;;;4.32;2.50;;;;;;;;;;5009269;28;20483;-46
2021/07/29 06:17:59;;;;;;;4.32;2.40;;;;;;;;;;5011262;28;20049;-49
2021/07/29 06:20:26;;;;;;;7.90;2.67;;;;;;;;;;5005856;28;20045;-46
2021/07/29 06:22:53;;;;;;;3.78;2.25;;;;;;;;;;5010899;28;20128;-46
2021/07/29 06:25:20;;;;;;;3.38;2.47;;;;;;;;;;5011454;28;20132;-47
2021/07/29 06:27:48;;;;;;;5.45;2.40;;;;;;;;;;5012392;28;20050;-49
2021/07/29 06:30:16;;;;;;;3.28;2.20;;;;;;;;;;5000113;28;20109;-49
2021/07/29 06:32:43;;;;;;;4.90;2.50;;;;;;;;;;5010210;28;20558;-50
2021/07/29 06:35:11;;;;;;;5.45;2.30;;;;;;;;;;5012127;28;20125;-47
2021/07/29 06:37:38;;;;;;;5.68;2.33;;;;;;;;;;5008063;28;20124;-46
2021/07/29 06:40:05;;;;;;;4.45;2.67;;;;;;;;;;5009390;28;20065;-46
2021/07/29 06:42:32;;;;;;;6.45;2.67;;;;;;;;;;5012157;28;20038;-45
2021/07/29 06:44:59;;;;;;;4.60;3.00;;;;;;;;;;5010064;28;20046;-50
2021/07/29 06:47:27;;;;;;;4.28;2.50;;;;;;;;;;5006751;28;20495;-51
2021/07/29 06:49:54;;;;;;;4.78;2.60;;;;;;;;;;4993524;28;20038;-45
2021/07/29 06:52:21;;;;;;;5.97;2.60;;;;;;;;;;5010837;28;20046;-48
2021/07/29 06:54:48;;;;;;;3.60;2.58;;;;;;;;;;5010982;28;20126;-46
2021/07/29 06:57:15;;;;;;;5.63;2.50;;;;;;;;;;5006380;28;20072;-48
2021/07/29 06:59:41;;;;;;;3.88;2.70;;;;;;;;;;5005426;28;20077;-49
2021/07/29 07:02:09;;;;;;;7.00;3.20;;;;;;;;;;5008181;28;20562;-48
2021/07/29 07:04:36;;;;;;;5.70;2.85;;;;;;;;;;5011779;28;20046;-49
2021/07/29 07:07:02;;;;;;;5.20;2.58;;;;;;;;;;5011218;28;20073;-48
2021/07/29 07:09:30;;;;;;;4.68;3.35;;;;;;;;;;5007053;28;20137;-48
2021/07/29 07:11:57;;;;;;;5.05;2.78;;;;;;;;;;5011150;28;20129;-46
2021/07/29 07:14:24;;;;;;;5.82;3.42;;;;;;;;;;5023603;28;20097;-46
2021/07/29 07:16:51;;;;;;;5.38;2.70;;;;;;;;;;5007246;28;20046;-46
2021/07/29 07:19:18;;;;;;;6.20;2.95;;;;;;;;;;5000019;28;20459;-48
2021/07/29 07:21:45;;;;;;;4.90;2.95;;;;;;;;;;5010948;28;20435;-46
2021/07/29 07:24:13;;;;;;;4.85;2.90;;;;;;;;;;5006281;28;20049;-50
2021/07/29 07:26:40;;;;;;;5.07;3.00;;;;;;;;;;5004387;28;20042;-47
2021/07/29 07:29:06;;;;;;;6.32;2.90;;;;;;;;;;5005162;28;20076;-48
2021/07/29 07:31:33;;;;;;;5.43;3.30;;;;;;;;;;4993149;28;20424;-50
2021/07/29 07:34:00;;;;;;;4.65;2.90;;;;;;;;;;5010938;28;20396;-46
2021/07/29 07:36:27;;;;;;;5.15;2.95;;;;;;;;;;5011985;28;20045;-50
2021/07/29 07:38:54;;;;;;;7.32;3.38;;;;;;;;;;4995453;28;20129;-48
2021/07/29 07:41:21;;;;;;;5.15;3.25;;;;;;;;;;4992223;28;20416;-47
2021/07/29 07:43:48;;;;;;;4.10;2.92;;;;;;;;;;4993291;28;20522;-47
2021/07/29 07:46:15;;;;;;;6.30;3.60;;;;;;;;;;5006444;28;20038;-49
2021/07/29 07:48:42;;;;;;;7.53;3.50;;;;;;;;;;5010904;28;20046;-46
2021/07/29 07:51:09;;;;;;;4.85;3.00;;;;;;;;;;5010478;28;20040;-48
2021/07/29 07:53:36;;;;;;;5.60;3.03;;;;;;;;;;5008996;28;20100;-51
2021/07/29 07:56:03;;;;;;;6.95;2.92;;;;;;;;;;5020614;28;20116;-47
2021/07/29 07:58:31;;;;;;;5.13;3.33;;;;;;;;;;5015421;28;20066;-46
2021/07/29 08:00:57;;;;;;;5.50;3.30;;;;;;;;;;4995226;28;20042;-47
2021/07/29 08:03:25;;;;;;;6.28;3.10;;;;;;;;;;4996471;28;20470;-47
2021/07/29 08:05:51;;;;;;;5.40;3.13;;;;;;;;;;5011398;28;20447;-48
2021/07/29 08:08:18;;;;;;;9.05;3.00;;;;;;;;;;5004350;28;20038;-50
2021/07/29 08:10:48;;;;;;;3.33;2.72;;;;;;;;;;4991935;28;20113;-49
2021/07/29 08:13:15;;;;;;;6.97;3.22;;;;;;;;;;4991853;28;20093;-50
2021/07/29 08:15:42;;;;;;;8.48;3.45;;;;;;;;;;4991668;28;20572;-46
2021/07/29 08:18:11;;;;;;;4.38;2.95;;;;;;;;;;5002924;28;20071;-50
2021/07/29 08:20:42;;;;;;;4.72;3.53;;;;;;;;;;5011373;28;20513;-50
2021/07/29 08:23:08;;;;;;;4.75;2.90;;;;;;;;;;5010462;28;20696;-51
2021/07/29 08:25:36;;;;;;;5.03;2.97;;;;;;;;;;5002116;28;20046;-48
2021/07/29 08:28:03;;;;;;;3.75;2.80;;;;;;;;;;5010678;28;20420;-47
2021/07/29 08:30:30;;;;;;;5.13;3.30;;;;;;;;;;4998247;28;20069;-50
2021/07/29 08:32:57;;;;;;;4.22;2.90;;;;;;;;;;4991547;28;20152;-49
2021/07/29 08:35:24;;;;;;;4.20;2.75;;;;;;;;;;4991649;28;20129;-52
2021/07/29 08:37:51;;;;;;;4.43;3.30;;;;;;;;;;4996990;28;20042;-47
2021/07/29 08:40:18;;;;;;;6.90;3.30;;;;;;;;;;4993435;28;20117;-46
2021/07/29 08:42:45;;;;;;;5.07;2.90;;;;;;;;;;4995628;28;20039;-47
2021/07/29 08:45:13;;;;;;;6.07;2.72;;;;;;;;;;4995607;28;20042;-46
2021/07/29 08:47:42;;;;;;;5.07;2.97;;;;;;;;;;4998778;28;20648;-46
2021/07/29 08:50:10;;;;;;;3.75;2.65;;;;;;;;;;5014169;28;20117;-52
2021/07/29 08:52:37;;;;;;;4.88;3.20;;;;;;;;;;5014940;28;20046;-48
2021/07/29 08:55:04;;;;;;;4.93;3.00;;;;;;;;;;5011711;28;20042;-54
2021/07/29 08:57:32;;;;;;;4.30;2.88;;;;;;;;;;5009498;28;20040;-47
2021/07/29 09:00:00;;;;;;;5.00;3.30;;;;;;;;;;5019633;28;20466;-46
2021/07/29 09:02:28;;;;;;;3.80;2.70;;;;;;;;;;5008761;28;20193;-45
2021/07/29 09:05:17;;;;;;;3.95;3.08;;;;;;;;;;5011951;28;20049;-47
2021/07/29 09:07:45;;;;;;;4.70;3.20;;;;;;;;;;5005956;28;20124;-46
2021/07/29 09:10:22;;;;;;;7.07;3.25;;;;;;;;;;5020565;28;20033;-48
2021/07/29 09:13:25;;;;;;;8.35;3.10;;;;;;;;;;5015764;28;20104;-48
2021/07/29 09:16:07;;;;;;;5.10;3.40;;;;;;;;;;4952037;29;20091;-48
2021/07/29 09:18:35;;;;;;;;;;;;;;;;;;5000802;28;20062;-46
2021/07/29 09:21:11;;;;;;;5.28;3.10;;;;;;;;;;5004921;28;19922;-46
2021/07/29 09:23:38;;;;;;;5.50;3.40;;;;;;;;;;5011204;28;20445;-50
2021/07/29 09:26:05;;;;;;;4.57;3.45;;;;;;;;;;5014144;28;20129;-46
2021/07/29 09:28:32;;;;;;;4.88;3.10;;;;;;;;;;5011448;28;20042;-46
2021/07/29 09:31:13;;;;;;;5.60;3.53;;;;;;;;;;5005761;28;20045;-47
2021/07/29 09:33:58;;;;;;;4.70;3.10;;;;;;;;;;5012121;28;20053;-50
2021/07/29 09:36:28;;;;;;;5.55;3.55;;;;;;;;;;5011443;28;20113;-45
2021/07/29 09:39:13;;;;;;;6.03;3.60;;;;;;;;;;5009473;28;20042;-49
2021/07/29 09:41:40;;;;;;;6.13;3.60;;;;;;;;;;4999001;28;20112;-51
2021/07/29 09:44:07;;;;;;;4.95;3.30;;;;;;;;;;5013311;28;20442;-49
2021/07/29 09:46:34;;;;;;;4.85;3.38;;;;;;;;;;5011555;28;20062;-46
2021/07/29 09:49:01;;;;;;;4.63;3.25;;;;;;;;;;5006151;28;20073;-47
2021/07/29 09:51:29;;;;;;;4.63;3.20;;;;;;;;;;5004178;28;20185;-46
2021/07/29 09:53:57;;;;;;;7.00;3.65;;;;;;;;;;5012707;28;20072;-46
2021/07/29 09:56:23;;;;;;;5.15;2.97;;;;;;;;;;5011857;28;20459;-45
2021/07/29 09:59:10;;;;;;;5.18;3.42;;;;;;;;;;5005791;28;20034;-46
2021/07/29 10:01:37;;;;;;;6.60;3.85;;;;;;;;;;5001653;28;20038;-52
2021/07/29 10:04:05;;;;;;;3.92;3.20;;;;;;;;;;5012436;28;20037;-52
2021/07/29 10:06:37;;;;;;;4.47;3.10;;;;;;;;;;5012016;28;20073;-48
2021/07/29 10:09:07;;;;;;;5.78;3.30;;;;;;;;;;5011336;28;20042;-49
2021/07/29 10:11:35;;;;;;;4.07;3.08;;;;;;;;;;5011378;28;20046;-48
2021/07/29 10:14:03;;;;;;;4.55;3.40;;;;;;;;;;5012389;28;20121;-52
2021/07/29 10:16:50;;;;;;;4.80;3.25;;;;;;;;;;5011057;28;20475;-46
2021/07/29 10:19:17;;;;;;;5.05;3.88;;;;;;;;;;5010440;28;20520;-47
2021/07/29 10:21:45;;;;;;;5.38;3.45;;;;;;;;;;5008714;28;20093;-49
2021/07/29 10:24:13;;;;;;;5.63;3.58;;;;;;;;;;5001153;28;20137;-45
2021/07/29 10:26:58;;;;;;;4.75;3.55;;;;;;;;;;5010947;28;20042;-51
2021/07/29 10:29:26;;;;;;;5.53;3.50;;;;;;;;;;5007029;28;20560;-46
2021/07/29 10:31:54;;;;;;;6.82;4.15;;;;;;;;;;5011098;28;20042;-48
2021/07/29 10:34:26;;;;;;;7.38;3.90;;;;;;;;;;5010860;28;20160;-48
2021/07/29 10:36:54;;;;;;;5.72;3.55;;;;;;;;;;5012810;28;20124;-51
2021/07/29 10:39:21;;;;;;;6.47;3.72;;;;;;;;;;5004565;28;20105;-49
2021/07/29 10:41:49;;;;;;;4.82;3.70;;;;;;;;;;4993218;28;20105;-47
2021/07/29 10:44:31;;;;;;;4.18;3.40;;;;;;;;;;5009299;28;20073;-50
2021/07/29 10:46:57;;;;;;;4.43;3.73;;;;;;;;;;5007053;28;20134;-49
2021/07/29 10:49:43;;;;;;;4.53;3.67;;;;;;;;;;4995745;28;20411;-49
2021/07/29 10:52:13;;;;;;;5.32;3.67;;;;;;;;;;5010268;28;20128;-48
2021/07/29 10:54:41;;;;;;;6.65;4.10;;;;;;;;;;5010015;28;20129;-49
2021/07/29 10:57:08;;;;;;;7.22;3.53;;;;;;;;;;5006189;28;20104;-55
2021/07/29 10:59:35;;;;;;;5.38;3.40;;;;;;;;;;5006540;28;20034;-50
2021/07/29 11:02:08;;;;;;;7.03;3.78;;;;;;;;;;5009163;28;20454;-50
2021/07/29 11:04:55;;;;;;;5.03;3.65;;;;;;;;;;5011102;28;20408;-50
2021/07/29 11:07:22;;;;;;;5.03;3.70;;;;;;;;;;5001526;28;20045;-51
2021/07/29 11:09:59;;;;;;;6.72;3.60;;;;;;;;;;5011231;28;20053;-46
2021/07/29 11:12:26;;;;;;;4.97;3.50;;;;;;;;;;5009958;28;20115;-49
2021/07/29 11:14:56;;;;;;;5.57;3.63;;;;;;;;;;5011119;28;20507;-53
2021/07/29 11:17:23;;;;;;;5.22;3.65;;;;;;;;;;5004823;28;20099;-49
2021/07/29 11:19:50;;;;;;;4.60;3.80;;;;;;;;;;4993061;28;20056;-50
2021/07/29 11:22:17;;;;;;;5.50;3.63;;;;;;;;;;5010501;28;20053;-48
2021/07/29 11:24:44;;;;;;;4.22;3.38;;;;;;;;;;5006535;28;20042;-49
2021/07/29 11:27:13;;;;;;;4.60;3.97;;;;;;;;;;5009740;28;20049;-51
2021/07/29 11:29:52;;;;;;;4.50;3.65;;;;;;;;;;5003525;28;20074;-47
2021/07/29 11:32:21;;;;;;;4.63;3.80;;;;;;;;;;4991523;28;20050;-47
2021/07/29 11:34:55;;;;;;;5.03;3.92;;;;;;;;;;5010238;28;20084;-47
2021/07/29 11:37:32;;;;;;;4.53;3.83;;;;;;;;;;5009676;28;20077;-46
2021/07/29 11:39:59;;;;;;;6.00;4.00;;;;;;;;;;5001918;28;20096;-52
2021/07/29 11:42:36;;;;;;;5.75;3.80;;;;;;;;;;4992125;28;20061;-46
2021/07/29 11:45:03;;;;;;;5.05;4.10;;;;;;;;;;5007337;28;20129;-47
2021/07/29 11:47:37;;;;;;;5.18;3.67;;;;;;;;;;4986653;28;20125;-51
2021/07/29 11:50:04;;;;;;;6.13;3.72;;;;;;;;;;5006642;28;20199;-50
2021/07/29 11:52:30;;;;;;;5.30;3.88;;;;;;;;;;4991882;28;20047;-46
2021/07/29 11:55:11;;;;;;;4.75;3.75;;;;;;;;;;5003654;28;20061;-47
2021/07/29 11:57:42;;;;;;;6.45;4.00;;;;;;;;;;5004289;28;20050;-47
2021/07/29 12:00:12;;;;;;;5.90;3.78;;;;;;;;;;4998768;28;20100;-47
2021/07/29 12:02:41;;;;;;;5.70;3.83;;;;;;;;;;5009865;28;20133;-47
2021/07/29 12:05:09;;;;;;;5.88;4.22;;;;;;;;;;5007996;28;20057;-53
2021/07/29 12:07:36;;;;;;;5.55;3.83;;;;;;;;;;5009660;28;20038;-46
2021/07/29 12:10:05;;;;;;;5.82;3.55;;;;;;;;;;4998434;28;20104;-48
2021/07/29 12:12:32;;;;;;;5.95;4.07;;;;;;;;;;5010166;28;20046;-50
2021/07/29 12:14:59;;;;;;;4.72;3.58;;;;;;;;;;5009112;28;20104;-46
2021/07/29 12:17:26;;;;;;;4.80;3.58;;;;;;;;;;5008224;28;20054;-50
2021/07/29 12:19:54;;;;;;;5.60;3.40;;;;;;;;;;4989792;28;20038;-46
2021/07/29 12:22:28;;;;;;;4.97;4.07;;;;;;;;;;5011343;28;20446;-51
2021/07/29 12:25:02;;;;;;;5.28;3.53;;;;;;;;;;5007662;28;20046;-50
2021/07/29 12:27:45;;;;;;;5.50;3.47;;;;;;;;;;5007089;28;20045;-47
2021/07/29 12:30:27;;;;;;;9.05;4.10;;;;;;;;;;4999405;28;20046;-47
2021/07/29 12:33:04;;;;;;;6.38;4.32;;;;;;;;;;4998494;28;20042;-49
2021/07/29 12:35:36;;;;;;;4.80;3.35;;;;;;;;;;4990284;28;20431;-54
2021/07/29 12:38:03;;;;;;;4.90;3.40;;;;;;;;;;5003953;28;20049;-47
2021/07/29 12:40:31;;;;;;;5.70;3.65;;;;;;;;;;4984434;28;20046;-49
2021/07/29 12:43:17;;;;;;;5.50;3.38;;;;;;;;;;5008428;28;20050;-51
2021/07/29 12:45:46;;;;;;;4.50;3.60;;;;;;;;;;5006659;28;20057;-49
2021/07/29 12:48:13;;;;;;;5.70;3.58;;;;;;;;;;5008413;28;20046;-49
2021/07/29 12:50:41;;;;;;;4.18;3.47;;;;;;;;;;5005466;28;20048;-49
2021/07/29 12:53:11;;;;;;;6.07;4.20;;;;;;;;;;5008873;28;20108;-45
2021/07/29 12:55:41;;;;;;;4.15;3.42;;;;;;;;;;5009862;28;20077;-52
2021/07/29 12:58:08;;;;;;;6.00;3.72;;;;;;;;;;5001164;28;20133;-55
2021/07/29 13:00:42;;;;;;;4.72;3.15;;;;;;;;;;4989673;28;20101;-49
2021/07/29 13:03:18;;;;;;;4.85;3.78;;;;;;;;;;5009790;28;20034;-48
2021/07/29 13:05:45;;;;;;;6.68;3.90;;;;;;;;;;5007680;28;20045;-48
2021/07/29 13:08:12;;;;;;;6.75;4.15;;;;;;;;;;5008833;28;20065;-45
2021/07/29 13:10:39;;;;;;;5.30;3.65;;;;;;;;;;5006584;28;20368;-51
2021/07/29 13:13:05;;;;;;;4.80;3.67;;;;;;;;;;5010033;28;20042;-49
2021/07/29 13:15:32;;;;;;;5.70;3.58;;;;;;;;;;4989753;28;20490;-47
2021/07/29 13:17:59;;;;;;;4.32;3.70;;;;;;;;;;4999961;28;20473;-53
2021/07/29 13:20:26;;;;;;;5.35;3.88;;;;;;;;;;5008789;28;20052;-49
2021/07/29 13:22:53;;;;;;;4.70;4.20;;;;;;;;;;5009475;28;20543;-52
2021/07/29 13:25:20;;;;;;;6.53;4.28;;;;;;;;;;5008359;28;20038;-49
2021/07/29 13:27:46;;;;;;;5.43;3.67;;;;;;;;;;5010704;28;20045;-46
2021/07/29 13:30:13;;;;;;;4.43;3.83;;;;;;;;;;5010107;28;20046;-48
2021/07/29 13:32:40;;;;;;;6.43;3.70;;;;;;;;;;5014061;28;20525;-48
2021/07/29 13:35:07;;;;;;;4.38;3.55;;;;;;;;;;5013830;28;20045;-52
2021/07/29 13:37:35;;;;;;;3.95;3.15;;;;;;;;;;5009194;28;20112;-53
2021/07/29 13:40:02;;;;;;;6.28;3.95;;;;;;;;;;4999136;28;20077;-49
2021/07/29 13:42:29;;;;;;;5.13;3.63;;;;;;;;;;5010872;28;20042;-47
2021/07/29 13:47:42;;;;;;;4.38;3.75;;;;;;;;;;5011548;28;20038;-48
2021/07/29 13:50:09;;;;;;;4.50;3.55;;;;;;;;;;4996513;28;20508;-50
2021/07/29 13:52:36;;;;;;;4.57;3.88;;;;;;;;;;5002380;28;20092;-47
2021/07/29 13:55:03;;;;;;;5.60;3.20;;;;;;;;;;5013747;28;20070;-50
2021/07/29 13:57:30;;;;;;;4.72;3.30;;;;;;;;;;5011321;28;20050;-51
2021/07/29 13:59:57;;;;;;;4.57;3.58;;;;;;;;;;5010948;28;20569;-51
2021/07/29 14:02:23;;;;;;;4.97;3.35;;;;;;;;;;5013056;28;20042;-53
2021/07/29 14:04:53;;;;;;;4.22;3.28;;;;;;;;;;5008101;28;20039;-48
2021/07/29 14:07:20;;;;;;;4.78;3.25;;;;;;;;;;5011581;28;20066;-47
2021/07/29 14:09:47;;;;;;;5.72;3.30;;;;;;;;;;5009157;28;20052;-49
2021/07/29 14:12:14;;;;;;;4.95;3.80;;;;;;;;;;5011661;28;20088;-49
2021/07/29 14:14:40;;;;;;;5.20;3.30;;;;;;;;;;5001860;28;20084;-49
2021/07/29 14:17:17;;;;;;;4.53;3.63;;;;;;;;;;5010960;28;20034;-46
2021/07/29 14:24:41;;;;;;;6.03;3.63;;;;;;;;;;5011155;28;20502;-48
2021/07/29 14:27:08;;;;;;;5.82;4.43;;;;;;;;;;4994422;28;20129;-51
2021/07/29 14:29:34;;;;;;;4.60;3.58;;;;;;;;;;5006412;28;20038;-48
2021/07/29 14:32:01;;;;;;;7.35;4.00;;;;;;;;;;5006953;28;20404;-49
2021/07/29 14:34:28;;;;;;;5.00;3.58;;;;;;;;;;5022171;22;20056;-53
2021/07/29 14:36:55;;;;;;;4.57;3.50;;;;;;;;;;5012820;28;20048;-51
2021/07/29 14:39:22;;;;;;;6.40;4.50;;;;;;;;;;5013250;28;20046;-47
2021/07/29 14:41:49;;;;;;;4.90;3.58;;;;;;;;;;5012771;28;20046;-46
2021/07/29 14:44:16;;;;;;;3.97;3.38;;;;;;;;;;4999874;28;20042;-46
2021/07/29 14:49:30;;;;;;;4.90;4.03;;;;;;;;;;5002736;28;20084;-45
2021/07/29 14:51:57;;;;;;;5.32;3.35;;;;;;;;;;5000486;28;20042;-48
2021/07/29 14:54:31;;;;;;;4.57;3.13;;;;;;;;;;4994732;28;20070;-45
2021/07/29 14:56:59;;;;;;;4.07;3.17;;;;;;;;;;5011719;28;20438;-53
2021/07/29 15:19:38;;;;;;;4.22;3.35;;;;;;;;;;5010566;28;20092;-46
2021/07/29 16:09:06;;;;;;;4.75;3.20;;;;;;;;;;5005277;28;20073;-51